sensor_id;sensor_type;location;lat;lon;timestamp;pressure;altitude;pressure_sealevel;temperature
39959;BMP280;25639;53.634;9.880;2022-09-17T00:00:03;155247.13;;;11.64
39959;BMP280;25639;53.634;9.880;2022-09-17T00:02:28;155226.72;;;11.56
39959;BMP280;25639;53.634;9.880;2022-09-17T00:04:54;155228.00;;;11.56
39959;BMP280;25639;53.634;9.880;2022-09-17T00:07:19;155225.41;;;11.55
39959;BMP280;25639;53.634;9.880;2022-09-17T00:09:44;155222.91;;;11.54
39959;BMP280;25639;53.634;9.880;2022-09-17T00:12:09;155225.41;;;11.55
39959;BMP280;25639;53.634;9.880;2022-09-17T00:14:35;155222.91;;;11.54
39959;BMP280;25639;53.634;9.880;2022-09-17T00:17:00;155231.81;;;11.58
39959;BMP280;25639;53.634;9.880;2022-09-17T00:19:25;155222.91;;;11.54
39959;BMP280;25639;53.634;9.880;2022-09-17T00:21:50;155226.72;;;11.56
39959;BMP280;25639;53.634;9.880;2022-09-17T00:24:16;155226.72;;;11.56
39959;BMP280;25639;53.634;9.880;2022-09-17T00:26:41;155226.72;;;11.56
39959;BMP280;25639;53.634;9.880;2022-09-17T00:29:08;155228.00;;;11.56
39959;BMP280;25639;53.634;9.880;2022-09-17T00:31:33;155229.25;;;11.57
39959;BMP280;25639;53.634;9.880;2022-09-17T00:33:59;155225.41;;;11.55
39959;BMP280;25639;53.634;9.880;2022-09-17T00:36:25;155220.31;;;11.53
39959;BMP280;25639;53.634;9.880;2022-09-17T00:38:51;155229.25;;;11.57
39959;BMP280;25639;53.634;9.880;2022-09-17T00:41:17;155210.13;;;11.49
39959;BMP280;25639;53.634;9.880;2022-09-17T00:43:47;155201.19;;;11.45
39959;BMP280;25639;53.634;9.880;2022-09-17T00:46:19;155207.56;;;11.48
39959;BMP280;25639;53.634;9.880;2022-09-17T00:48:47;155203.78;;;11.47
39959;BMP280;25639;53.634;9.880;2022-09-17T00:51:13;155182.06;;;11.38
39959;BMP280;25639;53.634;9.880;2022-09-17T00:53:41;155189.69;;;11.41
39959;BMP280;25639;53.634;9.880;2022-09-17T00:56:08;155183.34;;;11.38
39959;BMP280;25639;53.634;9.880;2022-09-17T00:58:36;155178.22;;;11.36
39959;BMP280;25639;53.634;9.880;2022-09-17T01:01:02;155188.44;;;11.40
39959;BMP280;25639;53.634;9.880;2022-09-17T01:03:28;155173.13;;;11.34
39959;BMP280;25639;53.634;9.880;2022-09-17T01:13:26;155155.28;;;11.27
39959;BMP280;25639;53.634;9.880;2022-09-17T01:21:20;155141.25;;;11.21
39959;BMP280;25639;53.634;9.880;2022-09-17T01:37:03;155138.69;;;11.20
39959;BMP280;25639;53.634;9.880;2022-09-17T01:39:32;155150.19;;;11.25
39959;BMP280;25639;53.634;9.880;2022-09-17T01:44:34;155141.25;;;11.21
39959;BMP280;25639;53.634;9.880;2022-09-17T01:47:03;155152.72;;;11.26
39959;BMP280;25639;53.634;9.880;2022-09-17T01:49:32;155145.03;;;11.23
39959;BMP280;25639;53.634;9.880;2022-09-17T01:51:59;155141.25;;;11.21
39959;BMP280;25639;53.634;9.880;2022-09-17T01:54:26;155150.19;;;11.25
39959;BMP280;25639;53.634;9.880;2022-09-17T01:57:03;155142.50;;;11.22
39959;BMP280;25639;53.634;9.880;2022-09-17T01:59:34;155148.88;;;11.24
39959;BMP280;25639;53.634;9.880;2022-09-17T02:02:05;155125.91;;;11.15
39959;BMP280;25639;53.634;9.880;2022-09-17T02:04:34;155123.38;;;11.14
39959;BMP280;25639;53.634;9.880;2022-09-17T02:07:02;155118.25;;;11.12
39959;BMP280;25639;53.634;9.880;2022-09-17T02:09:52;155113.16;;;11.10
39959;BMP280;25639;53.634;9.880;2022-09-17T02:12:17;155114.47;;;11.11
39959;BMP280;25639;53.634;9.880;2022-09-17T02:14:48;155125.91;;;11.15
39959;BMP280;25639;53.634;9.880;2022-09-17T02:17:18;155145.03;;;11.23
39959;BMP280;25639;53.634;9.880;2022-09-17T02:19:44;155133.59;;;11.18
39959;BMP280;25639;53.634;9.880;2022-09-17T02:29:59;155120.81;;;11.13
39959;BMP280;25639;53.634;9.880;2022-09-17T02:32:24;155131.00;;;11.17
39959;BMP280;25639;53.634;9.880;2022-09-17T02:34:50;155122.06;;;11.14
39959;BMP280;25639;53.634;9.880;2022-09-17T02:37:15;155116.97;;;11.12
39959;BMP280;25639;53.634;9.880;2022-09-17T02:39:40;155124.66;;;11.15
39959;BMP280;25639;53.634;9.880;2022-09-17T02:52:25;155106.78;;;11.07
39959;BMP280;25639;53.634;9.880;2022-09-17T02:55:00;155100.38;;;11.05
39959;BMP280;25639;53.634;9.880;2022-09-17T02:57:28;155092.75;;;11.02
39959;BMP280;25639;53.634;9.880;2022-09-17T03:00:03;155080.00;;;10.97
39959;BMP280;25639;53.634;9.880;2022-09-17T03:02:34;155099.13;;;11.04
39959;BMP280;25639;53.634;9.880;2022-09-17T03:05:02;155092.75;;;11.02
39959;BMP280;25639;53.634;9.880;2022-09-17T03:07:28;155102.97;;;11.06
39959;BMP280;25639;53.634;9.880;2022-09-17T03:09:53;155104.22;;;11.06
39959;BMP280;25639;53.634;9.880;2022-09-17T03:12:19;155100.38;;;11.05
39959;BMP280;25639;53.634;9.880;2022-09-17T03:14:44;155105.53;;;11.07
39959;BMP280;25639;53.634;9.880;2022-09-17T03:17:09;155105.53;;;11.07
39959;BMP280;25639;53.634;9.880;2022-09-17T03:19:35;155095.28;;;11.03
39959;BMP280;25639;53.634;9.880;2022-09-17T03:22:00;155110.63;;;11.09
39959;BMP280;25639;53.634;9.880;2022-09-17T03:24:25;155109.31;;;11.09
39959;BMP280;25639;53.634;9.880;2022-09-17T03:26:51;155102.97;;;11.06
39959;BMP280;25639;53.634;9.880;2022-09-17T03:29:16;155113.16;;;11.10
39959;BMP280;25639;53.634;9.880;2022-09-17T03:31:42;155095.28;;;11.03
39959;BMP280;25639;53.634;9.880;2022-09-17T03:34:07;155113.16;;;11.10
39959;BMP280;25639;53.634;9.880;2022-09-17T03:36:32;155108.06;;;11.08
39959;BMP280;25639;53.634;9.880;2022-09-17T03:38:57;155118.25;;;11.12
39959;BMP280;25639;53.634;9.880;2022-09-17T03:41:23;155113.16;;;11.10
39959;BMP280;25639;53.634;9.880;2022-09-17T03:43:49;155105.53;;;11.07
39959;BMP280;25639;53.634;9.880;2022-09-17T03:46:14;155090.19;;;11.01
39959;BMP280;25639;53.634;9.880;2022-09-17T03:48:39;155086.34;;;10.99
39959;BMP280;25639;53.634;9.880;2022-09-17T03:51:05;155080.00;;;10.97
39959;BMP280;25639;53.634;9.880;2022-09-17T03:53:30;155072.34;;;10.94
39959;BMP280;25639;53.634;9.880;2022-09-17T03:55:57;155071.06;;;10.93
39959;BMP280;25639;53.634;9.880;2022-09-17T03:58:23;155058.31;;;10.88
39959;BMP280;25639;53.634;9.880;2022-09-17T04:00:48;155037.88;;;10.80
39959;BMP280;25639;53.634;9.880;2022-09-17T04:03:17;155027.69;;;10.76
39959;BMP280;25639;53.634;9.880;2022-09-17T04:05:42;155037.88;;;10.80
39959;BMP280;25639;53.634;9.880;2022-09-17T04:08:07;155032.78;;;10.78
39959;BMP280;25639;53.634;9.880;2022-09-17T04:10:32;155013.66;;;10.70
39959;BMP280;25639;53.634;9.880;2022-09-17T04:12:57;155011.09;;;10.69
39959;BMP280;25639;53.634;9.880;2022-09-17T04:15:23;154999.66;;;10.64
39959;BMP280;25639;53.634;9.880;2022-09-17T04:17:48;154991.97;;;10.61
39959;BMP280;25639;53.634;9.880;2022-09-17T04:20:13;155006.00;;;10.67
39959;BMP280;25639;53.634;9.880;2022-09-17T04:22:38;155013.66;;;10.70
39959;BMP280;25639;53.634;9.880;2022-09-17T04:25:04;155009.84;;;10.68
39959;BMP280;25639;53.634;9.880;2022-09-17T04:27:29;155023.84;;;10.74
39959;BMP280;25639;53.634;9.880;2022-09-17T04:29:54;155008.56;;;10.68
39959;BMP280;25639;53.634;9.880;2022-09-17T04:32:19;155021.34;;;10.73
39959;BMP280;25639;53.634;9.880;2022-09-17T04:34:44;155014.94;;;10.71
39959;BMP280;25639;53.634;9.880;2022-09-17T04:37:10;155013.66;;;10.70
39959;BMP280;25639;53.634;9.880;2022-09-17T04:39:35;154989.41;;;10.60
39959;BMP280;25639;53.634;9.880;2022-09-17T04:42:02;154990.72;;;10.61
39959;BMP280;25639;53.634;9.880;2022-09-17T04:44:27;154994.56;;;10.62
39959;BMP280;25639;53.634;9.880;2022-09-17T04:46:52;154984.31;;;10.58
39959;BMP280;25639;53.634;9.880;2022-09-17T04:49:17;154979.22;;;10.56
39959;BMP280;25639;53.634;9.880;2022-09-17T04:51:43;154988.16;;;10.60
39959;BMP280;25639;53.634;9.880;2022-09-17T04:54:08;154988.16;;;10.60
39959;BMP280;25639;53.634;9.880;2022-09-17T04:56:33;154998.34;;;10.64
39959;BMP280;25639;53.634;9.880;2022-09-17T04:58:58;154991.97;;;10.61
39959;BMP280;25639;53.634;9.880;2022-09-17T05:01:23;154989.41;;;10.60
39959;BMP280;25639;53.634;9.880;2022-09-17T05:03:49;154984.31;;;10.58
39959;BMP280;25639;53.634;9.880;2022-09-17T05:06:14;154985.63;;;10.59
39959;BMP280;25639;53.634;9.880;2022-09-17T05:08:39;154979.22;;;10.56
39959;BMP280;25639;53.634;9.880;2022-09-17T05:11:04;154984.31;;;10.58
39959;BMP280;25639;53.634;9.880;2022-09-17T05:13:29;154991.97;;;10.61
39959;BMP280;25639;53.634;9.880;2022-09-17T05:15:55;154979.22;;;10.56
39959;BMP280;25639;53.634;9.880;2022-09-17T05:18:23;155002.16;;;10.65
39959;BMP280;25639;53.634;9.880;2022-09-17T05:20:48;154999.66;;;10.64
39959;BMP280;25639;53.634;9.880;2022-09-17T05:23:14;154994.56;;;10.62
39959;BMP280;25639;53.634;9.880;2022-09-17T05:25:39;154988.16;;;10.60
39959;BMP280;25639;53.634;9.880;2022-09-17T05:28:04;154986.88;;;10.59
39959;BMP280;25639;53.634;9.880;2022-09-17T05:30:29;154974.13;;;10.54
39959;BMP280;25639;53.634;9.880;2022-09-17T05:32:58;155000.91;;;10.65
39959;BMP280;25639;53.634;9.880;2022-09-17T05:35:24;154999.66;;;10.64
39959;BMP280;25639;53.634;9.880;2022-09-17T05:37:49;155004.75;;;10.66
39959;BMP280;25639;53.634;9.880;2022-09-17T05:40:14;154994.56;;;10.62
39959;BMP280;25639;53.634;9.880;2022-09-17T05:42:39;155003.47;;;10.66
39959;BMP280;25639;53.634;9.880;2022-09-17T05:45:04;154999.66;;;10.64
39959;BMP280;25639;53.634;9.880;2022-09-17T05:47:30;154993.25;;;10.62
39959;BMP280;25639;53.634;9.880;2022-09-17T05:49:55;154999.66;;;10.64
39959;BMP280;25639;53.634;9.880;2022-09-17T05:52:20;155007.25;;;10.67
39959;BMP280;25639;53.634;9.880;2022-09-17T05:54:45;155008.56;;;10.68
39959;BMP280;25639;53.634;9.880;2022-09-17T05:57:11;155013.66;;;10.70
39959;BMP280;25639;53.634;9.880;2022-09-17T05:59:36;155031.53;;;10.77
39959;BMP280;25639;53.634;9.880;2022-09-17T06:02:01;155050.66;;;10.85
39959;BMP280;25639;53.634;9.880;2022-09-17T06:04:26;155067.25;;;10.92
39959;BMP280;25639;53.634;9.880;2022-09-17T06:06:51;155054.47;;;10.86
39959;BMP280;25639;53.634;9.880;2022-09-17T06:09:17;155034.03;;;10.78
39959;BMP280;25639;53.634;9.880;2022-09-17T06:11:42;155017.50;;;10.72
39959;BMP280;25639;53.634;9.880;2022-09-17T06:14:07;155016.19;;;10.71
39959;BMP280;25639;53.634;9.880;2022-09-17T06:16:33;155017.50;;;10.72
39959;BMP280;25639;53.634;9.880;2022-09-17T06:18:58;155016.19;;;10.71
39959;BMP280;25639;53.634;9.880;2022-09-17T06:21:23;155004.75;;;10.66
39959;BMP280;25639;53.634;9.880;2022-09-17T06:23:48;154997.06;;;10.63
39959;BMP280;25639;53.634;9.880;2022-09-17T06:26:14;155025.13;;;10.75
39959;BMP280;25639;53.634;9.880;2022-09-17T06:28:39;155002.16;;;10.65
39959;BMP280;25639;53.634;9.880;2022-09-17T06:31:05;154986.88;;;10.59
39959;BMP280;25639;53.634;9.880;2022-09-17T06:33:31;154970.28;;;10.53
39959;BMP280;25639;53.634;9.880;2022-09-17T06:35:56;154975.38;;;10.55
39959;BMP280;25639;53.634;9.880;2022-09-17T06:38:24;154974.13;;;10.54
39959;BMP280;25639;53.634;9.880;2022-09-17T06:40:49;155006.00;;;10.67
39959;BMP280;25639;53.634;9.880;2022-09-17T06:43:15;155044.28;;;10.82
39959;BMP280;25639;53.634;9.880;2022-09-17T06:45:40;155169.31;;;11.33
39959;BMP280;25639;53.634;9.880;2022-09-17T06:48:07;155279.06;;;11.77
39959;BMP280;25639;53.634;9.880;2022-09-17T06:50:32;155425.91;;;12.36
39959;BMP280;25639;53.634;9.880;2022-09-17T06:52:57;155552.31;;;12.87
39959;BMP280;25639;53.634;9.880;2022-09-17T06:55:22;155625.09;;;13.16
39959;BMP280;25639;53.634;9.880;2022-09-17T06:57:48;155631.53;;;13.19
39959;BMP280;25639;53.634;9.880;2022-09-17T07:00:13;155657.09;;;13.29
39959;BMP280;25639;53.634;9.880;2022-09-17T07:02:38;155746.56;;;13.65
39959;BMP280;25639;53.634;9.880;2022-09-17T07:05:03;155879.44;;;14.18
39959;BMP280;25639;53.634;9.880;2022-09-17T07:07:29;155942.13;;;14.43
39959;BMP280;25639;53.634;9.880;2022-09-17T07:09:54;156039.31;;;14.82
39959;BMP280;25639;53.634;9.880;2022-09-17T07:12:20;155933.19;;;14.40
39959;BMP280;25639;53.634;9.880;2022-09-17T07:14:45;155800.25;;;13.86
39959;BMP280;25639;53.634;9.880;2022-09-17T07:17:11;155691.59;;;13.43
39959;BMP280;25639;53.634;9.880;2022-09-17T07:19:36;155666.06;;;13.32
39959;BMP280;25639;53.634;9.880;2022-09-17T07:22:02;155640.47;;;13.22
39959;BMP280;25639;53.634;9.880;2022-09-17T07:24:28;155594.44;;;13.04
39959;BMP280;25639;53.634;9.880;2022-09-17T07:26:53;155544.66;;;12.84
39959;BMP280;25639;53.634;9.880;2022-09-17T07:29:18;155470.59;;;12.54
39959;BMP280;25639;53.634;9.880;2022-09-17T07:31:44;155505.06;;;12.68
39959;BMP280;25639;53.634;9.880;2022-09-17T07:34:09;155468.03;;;12.53
39959;BMP280;25639;53.634;9.880;2022-09-17T07:36:35;155485.91;;;12.60
39959;BMP280;25639;53.634;9.880;2022-09-17T07:39:00;155482.06;;;12.58
39959;BMP280;25639;53.634;9.880;2022-09-17T07:41:25;155501.25;;;12.66
39959;BMP280;25639;53.634;9.880;2022-09-17T07:43:51;155667.34;;;13.33
39959;BMP280;25639;53.634;9.880;2022-09-17T07:46:17;155816.81;;;13.93
39959;BMP280;25639;53.634;9.880;2022-09-17T07:48:43;155917.81;;;14.34
39959;BMP280;25639;53.634;9.880;2022-09-17T07:51:15;155992.03;;;14.63
39959;BMP280;25639;53.634;9.880;2022-09-17T07:53:41;156136.50;;;15.21
39959;BMP280;25639;53.634;9.880;2022-09-17T07:56:06;156180.03;;;15.39
39959;BMP280;25639;53.634;9.880;2022-09-17T07:58:33;156224.78;;;15.57
39959;BMP280;25639;53.634;9.880;2022-09-17T08:01:03;156296.47;;;15.86
39959;BMP280;25639;53.634;9.880;2022-09-17T08:03:29;156370.72;;;16.15
39959;BMP280;25639;53.634;9.880;2022-09-17T08:05:59;156327.19;;;15.98
39959;BMP280;25639;53.634;9.880;2022-09-17T08:08:24;156395.00;;;16.25
39959;BMP280;25639;53.634;9.880;2022-09-17T08:10:50;156453.88;;;16.49
39959;BMP280;25639;53.634;9.880;2022-09-17T08:13:15;156414.25;;;16.33
39959;BMP280;25639;53.634;9.880;2022-09-17T08:15:40;156453.88;;;16.49
39959;BMP280;25639;53.634;9.880;2022-09-17T08:18:05;156516.59;;;16.74
39959;BMP280;25639;53.634;9.880;2022-09-17T08:20:30;156571.72;;;16.96
39959;BMP280;25639;53.634;9.880;2022-09-17T08:22:59;156409.09;;;16.31
39959;BMP280;25639;53.634;9.880;2022-09-17T08:25:24;156552.53;;;16.88
39959;BMP280;25639;53.634;9.880;2022-09-17T08:27:52;156598.63;;;17.07
39959;BMP280;25639;53.634;9.880;2022-09-17T08:30:17;156721.53;;;17.56
39959;BMP280;25639;53.634;9.880;2022-09-17T08:32:42;156634.47;;;17.21
39959;BMP280;25639;53.634;9.880;2022-09-17T08:35:07;156348.97;;;16.07
39959;BMP280;25639;53.634;9.880;2022-09-17T08:37:33;156264.44;;;15.73
39959;BMP280;25639;53.634;9.880;2022-09-17T08:39:59;156259.34;;;15.71
39959;BMP280;25639;53.634;9.880;2022-09-17T08:42:26;156064.91;;;14.93
39959;BMP280;25639;53.634;9.880;2022-09-17T08:44:55;155911.44;;;14.31
39959;BMP280;25639;53.634;9.880;2022-09-17T08:49:47;156122.44;;;15.16
39959;BMP280;25639;53.634;9.880;2022-09-17T08:55:19;156237.59;;;15.62
39959;BMP280;25639;53.634;9.880;2022-09-17T09:00:19;156182.59;;;15.40
39959;BMP280;25639;53.634;9.880;2022-09-17T09:05:29;155953.59;;;14.48
39959;BMP280;25639;53.634;9.880;2022-09-17T09:08:10;155859.03;;;14.10
39959;BMP280;25639;53.634;9.880;2022-09-17T09:10:56;155786.19;;;13.81
39959;BMP280;25639;53.634;9.880;2022-09-17T09:13:22;155764.47;;;13.72
39959;BMP280;25639;53.634;9.880;2022-09-17T09:16:32;155902.50;;;14.27
39959;BMP280;25639;53.634;9.880;2022-09-17T09:18:38;156008.63;;;14.70
39959;BMP280;25639;53.634;9.880;2022-09-17T09:21:08;156116.06;;;15.13
39959;BMP280;25639;53.634;9.880;2022-09-17T09:26:17;156057.22;;;14.90
39959;BMP280;25639;53.634;9.880;2022-09-17T09:28:58;156036.78;;;14.81
39959;BMP280;25639;53.634;9.880;2022-09-17T09:34:11;155956.19;;;14.49
39959;BMP280;25639;53.634;9.880;2022-09-17T09:36:38;155986.91;;;14.61
39959;BMP280;25639;53.634;9.880;2022-09-17T09:39:06;156171.06;;;15.35
39959;BMP280;25639;53.634;9.880;2022-09-17T09:41:42;156059.78;;;14.91
39959;BMP280;25639;53.634;9.880;2022-09-17T09:44:10;155939.53;;;14.42
39959;BMP280;25639;53.634;9.880;2022-09-17T09:46:48;155962.56;;;14.52
39959;BMP280;25639;53.634;9.880;2022-09-17T09:59:13;156190.22;;;15.43
39959;BMP280;25639;53.634;9.880;2022-09-17T10:01:39;156331.03;;;15.99
39959;BMP280;25639;53.634;9.880;2022-09-17T10:04:13;156420.63;;;16.35
39959;BMP280;25639;53.634;9.880;2022-09-17T10:06:39;156299.06;;;15.87
39959;BMP280;25639;53.634;9.880;2022-09-17T10:11:31;156112.25;;;15.12
39959;BMP280;25639;53.634;9.880;2022-09-17T10:16:43;156034.19;;;14.80
39959;BMP280;25639;53.634;9.880;2022-09-17T10:23:59;155970.25;;;14.55
39959;BMP280;25639;53.634;9.880;2022-09-17T10:26:26;155949.75;;;14.46
39959;BMP280;25639;53.634;9.880;2022-09-17T10:28:54;155880.75;;;14.19
39959;BMP280;25639;53.634;9.880;2022-09-17T10:31:20;155810.44;;;13.90
39959;BMP280;25639;53.634;9.880;2022-09-17T10:33:50;155778.50;;;13.78
39959;BMP280;25639;53.634;9.880;2022-09-17T10:36:16;155795.13;;;13.84
39959;BMP280;25639;53.634;9.880;2022-09-17T10:38:58;155778.50;;;13.78
39959;BMP280;25639;53.634;9.880;2022-09-17T10:41:52;155786.19;;;13.81
39959;BMP280;25639;53.634;9.880;2022-09-17T10:44:19;155819.41;;;13.94
39959;BMP280;25639;53.634;9.880;2022-09-17T10:46:45;155834.72;;;14.00
39959;BMP280;25639;53.634;9.880;2022-09-17T10:49:11;155793.81;;;13.84
39959;BMP280;25639;53.634;9.880;2022-09-17T10:51:43;155864.13;;;14.12
39959;BMP280;25639;53.634;9.880;2022-09-17T10:56:36;155880.75;;;14.19
39959;BMP280;25639;53.634;9.880;2022-09-17T10:59:21;155844.97;;;14.04
39959;BMP280;25639;53.634;9.880;2022-09-17T11:02:18;155887.13;;;14.21
39959;BMP280;25639;53.634;9.880;2022-09-17T11:09:57;155913.97;;;14.32
39959;BMP280;25639;53.634;9.880;2022-09-17T11:30:23;156045.72;;;14.85
39959;BMP280;25639;53.634;9.880;2022-09-17T11:35:32;155948.50;;;14.46
39959;BMP280;25639;53.634;9.880;2022-09-17T11:43:06;156082.81;;;15.00
39959;BMP280;25639;53.634;9.880;2022-09-17T11:45:33;156132.66;;;15.20
39959;BMP280;25639;53.634;9.880;2022-09-17T11:50:43;156128.81;;;15.18
39959;BMP280;25639;53.634;9.880;2022-09-17T11:53:19;156035.50;;;14.81
39959;BMP280;25639;53.634;9.880;2022-09-17T11:56:04;156007.34;;;14.70
39959;BMP280;25639;53.634;9.880;2022-09-17T11:58:43;155977.97;;;14.58
39959;BMP280;25639;53.634;9.880;2022-09-17T12:01:23;155960.03;;;14.51
39959;BMP280;25639;53.634;9.880;2022-09-17T12:03:52;155956.19;;;14.49
39959;BMP280;25639;53.634;9.880;2022-09-17T12:06:22;155947.22;;;14.45
39959;BMP280;25639;53.634;9.880;2022-09-17T12:11:17;156073.84;;;14.96
39959;BMP280;25639;53.634;9.880;2022-09-17T12:13:50;156186.38;;;15.41
39959;BMP280;25639;53.634;9.880;2022-09-17T12:21:14;156223.53;;;15.56
39959;BMP280;25639;53.634;9.880;2022-09-17T12:23:46;156240.13;;;15.63
39959;BMP280;25639;53.634;9.880;2022-09-17T12:29:00;156200.50;;;15.47
39959;BMP280;25639;53.634;9.880;2022-09-17T12:31:31;156258.03;;;15.70
39959;BMP280;25639;53.634;9.880;2022-09-17T12:34:11;156243.97;;;15.64
39959;BMP280;25639;53.634;9.880;2022-09-17T12:36:41;156316.97;;;15.94
39959;BMP280;25639;53.634;9.880;2022-09-17T12:44:34;156517.91;;;16.74
39959;BMP280;25639;53.634;9.880;2022-09-17T12:50:09;156460.31;;;16.51
39959;BMP280;25639;53.634;9.880;2022-09-17T12:55:43;156433.44;;;16.41
39959;BMP280;25639;53.634;9.880;2022-09-17T13:00:49;156293.94;;;15.85
39959;BMP280;25639;53.634;9.880;2022-09-17T13:03:27;156314.38;;;15.93
39959;BMP280;25639;53.634;9.880;2022-09-17T13:08:42;156191.53;;;15.43
39959;BMP280;25639;53.634;9.880;2022-09-17T13:16:16;156109.66;;;15.11
39959;BMP280;25639;53.634;9.880;2022-09-17T13:24:01;156090.50;;;15.03
39959;BMP280;25639;53.634;9.880;2022-09-17T13:26:33;156164.69;;;15.33
39959;BMP280;25639;53.634;9.880;2022-09-17T13:28:59;156191.53;;;15.43
39959;BMP280;25639;53.634;9.880;2022-09-17T13:33:59;156123.72;;;15.16
39959;BMP280;25639;53.634;9.880;2022-09-17T13:39:00;156200.50;;;15.47
39959;BMP280;25639;53.634;9.880;2022-09-17T13:41:26;156176.19;;;15.37
39959;BMP280;25639;53.634;9.880;2022-09-17T13:43:52;156132.66;;;15.20
39959;BMP280;25639;53.634;9.880;2022-09-17T13:46:23;156228.63;;;15.58
39959;BMP280;25639;53.634;9.880;2022-09-17T13:48:51;156304.16;;;15.89
39959;BMP280;25639;53.634;9.880;2022-09-17T13:53:59;156328.47;;;15.98
39959;BMP280;25639;53.634;9.880;2022-09-17T13:56:30;156396.28;;;16.26
39959;BMP280;25639;53.634;9.880;2022-09-17T13:59:09;156357.91;;;16.10
39959;BMP280;25639;53.634;9.880;2022-09-17T14:05:14;156204.28;;;15.49
39959;BMP280;25639;53.634;9.880;2022-09-17T14:17:49;156195.34;;;15.45
39959;BMP280;25639;53.634;9.880;2022-09-17T14:20:17;156288.78;;;15.82
39959;BMP280;25639;53.634;9.880;2022-09-17T14:22:42;156333.56;;;16.00
39959;BMP280;25639;53.634;9.880;2022-09-17T14:25:14;156122.44;;;15.16
39959;BMP280;25639;53.634;9.880;2022-09-17T14:30:30;155977.97;;;14.58
39959;BMP280;25639;53.634;9.880;2022-09-17T14:33:13;155828.34;;;13.98
39959;BMP280;25639;53.634;9.880;2022-09-17T14:35:42;155754.19;;;13.68
39959;BMP280;25639;53.634;9.880;2022-09-17T14:40:33;155604.69;;;13.08
39959;BMP280;25639;53.634;9.880;2022-09-17T14:42:58;155542.13;;;12.83
39959;BMP280;25639;53.634;9.880;2022-09-17T14:47:54;155584.25;;;13.00
39959;BMP280;25639;53.634;9.880;2022-09-17T14:50:34;155542.13;;;12.83
39959;BMP280;25639;53.634;9.880;2022-09-17T14:53:05;155508.88;;;12.69
39959;BMP280;25639;53.634;9.880;2022-09-17T14:55:31;155556.16;;;12.88
39959;BMP280;25639;53.634;9.880;2022-09-17T14:57:56;155562.53;;;12.91
39959;BMP280;25639;53.634;9.880;2022-09-17T15:02:52;155570.19;;;12.94
39959;BMP280;25639;53.634;9.880;2022-09-17T15:07:44;155563.84;;;12.91
39959;BMP280;25639;53.634;9.880;2022-09-17T15:10:14;155594.44;;;13.04
39959;BMP280;25639;53.634;9.880;2022-09-17T15:12:41;155590.66;;;13.02
39959;BMP280;25639;53.634;9.880;2022-09-17T15:15:10;155603.38;;;13.07
39959;BMP280;25639;53.634;9.880;2022-09-17T15:17:40;155607.22;;;13.09
39959;BMP280;25639;53.634;9.880;2022-09-17T15:20:06;155590.66;;;13.02
39959;BMP280;25639;53.634;9.880;2022-09-17T15:22:33;155570.19;;;12.94
39959;BMP280;25639;53.634;9.880;2022-09-17T15:25:01;155588.06;;;13.01
39959;BMP280;25639;53.634;9.880;2022-09-17T15:27:30;155545.97;;;12.84
39959;BMP280;25639;53.634;9.880;2022-09-17T15:30:02;155519.13;;;12.73
39959;BMP280;25639;53.634;9.880;2022-09-17T15:32:27;155517.81;;;12.73
39959;BMP280;25639;53.634;9.880;2022-09-17T15:37:34;155496.13;;;12.64
39959;BMP280;25639;53.634;9.880;2022-09-17T15:40:10;155496.13;;;12.64
39959;BMP280;25639;53.634;9.880;2022-09-17T15:42:36;155491.00;;;12.62
39959;BMP280;25639;53.634;9.880;2022-09-17T15:45:20;155501.25;;;12.66
39959;BMP280;25639;53.634;9.880;2022-09-17T15:47:51;155483.34;;;12.59
39959;BMP280;25639;53.634;9.880;2022-09-17T15:50:17;155505.06;;;12.68
39959;BMP280;25639;53.634;9.880;2022-09-17T15:52:44;155520.41;;;12.74
39959;BMP280;25639;53.634;9.880;2022-09-17T15:57:56;155510.19;;;12.70
39959;BMP280;25639;53.634;9.880;2022-09-17T16:00:22;155514.00;;;12.71
39959;BMP280;25639;53.634;9.880;2022-09-17T16:02:47;155499.94;;;12.66
39959;BMP280;25639;53.634;9.880;2022-09-17T16:07:39;155461.66;;;12.50
39959;BMP280;25639;53.634;9.880;2022-09-17T16:10:04;155466.75;;;12.52
39959;BMP280;25639;53.634;9.880;2022-09-17T16:12:30;155492.31;;;12.63
39959;BMP280;25639;53.634;9.880;2022-09-17T16:14:56;155499.94;;;12.66
39959;BMP280;25639;53.634;9.880;2022-09-17T16:17:23;155517.81;;;12.73
39959;BMP280;25639;53.634;9.880;2022-09-17T16:19:49;155507.63;;;12.69
39959;BMP280;25639;53.634;9.880;2022-09-17T16:22:14;155488.47;;;12.61
39959;BMP280;25639;53.634;9.880;2022-09-17T16:24:39;155502.53;;;12.67
39959;BMP280;25639;53.634;9.880;2022-09-17T16:27:05;155448.91;;;12.45
39959;BMP280;25639;53.634;9.880;2022-09-17T16:29:30;155422.06;;;12.34
39959;BMP280;25639;53.634;9.880;2022-09-17T16:31:55;155433.53;;;12.39
39959;BMP280;25639;53.634;9.880;2022-09-17T16:34:20;155442.47;;;12.43
39959;BMP280;25639;53.634;9.880;2022-09-17T16:36:46;155425.91;;;12.36
39959;BMP280;25639;53.634;9.880;2022-09-17T16:39:11;155424.59;;;12.35
39959;BMP280;25639;53.634;9.880;2022-09-17T16:41:36;155423.34;;;12.35
39959;BMP280;25639;53.634;9.880;2022-09-17T16:44:01;155443.78;;;12.43
39959;BMP280;25639;53.634;9.880;2022-09-17T16:46:26;155428.44;;;12.37
39959;BMP280;25639;53.634;9.880;2022-09-17T16:48:51;155419.50;;;12.33
39959;BMP280;25639;53.634;9.880;2022-09-17T16:51:17;155399.09;;;12.25
39959;BMP280;25639;53.634;9.880;2022-09-17T16:53:42;155388.88;;;12.21
39959;BMP280;25639;53.634;9.880;2022-09-17T16:56:08;155399.09;;;12.25
39959;BMP280;25639;53.634;9.880;2022-09-17T16:58:33;155391.44;;;12.22
39959;BMP280;25639;53.634;9.880;2022-09-17T17:01:04;155367.16;;;12.12
39959;BMP280;25639;53.634;9.880;2022-09-17T17:03:30;155362.06;;;12.10
39959;BMP280;25639;53.634;9.880;2022-09-17T17:05:55;155356.94;;;12.08
39959;BMP280;25639;53.634;9.880;2022-09-17T17:08:20;155342.91;;;12.02
39959;BMP280;25639;53.634;9.880;2022-09-17T17:10:47;155344.19;;;12.03
39959;BMP280;25639;53.634;9.880;2022-09-17T17:13:13;155350.59;;;12.06
39959;BMP280;25639;53.634;9.880;2022-09-17T17:15:39;155310.97;;;11.90